createdAt,value
2023-11-07T00:01:42.242Z,7.13
2023-11-07T00:04:09.717Z,7.88
2023-11-07T00:06:36.928Z,6.53
2023-11-07T00:09:04.053Z,7.53
2023-11-07T00:11:30.994Z,7.68
2023-11-07T00:13:57.997Z,6.32
2023-11-07T00:16:24.910Z,9.05
2023-11-07T00:18:51.943Z,6.43
2023-11-07T00:21:18.914Z,5.32
2023-11-07T00:23:45.907Z,6.65
2023-11-07T00:26:12.866Z,8.82
2023-11-07T00:28:39.840Z,10.20
2023-11-07T00:31:06.931Z,5.45
2023-11-07T00:33:34.170Z,7.47
2023-11-07T00:36:01.314Z,4.40
2023-11-07T00:38:28.310Z,5.70
2023-11-07T00:40:55.301Z,6.18
2023-11-07T00:43:22.330Z,6.40
2023-11-07T00:45:49.294Z,8.75
2023-11-07T00:48:16.397Z,5.47
2023-11-07T00:50:43.602Z,7.22
2023-11-07T00:53:10.616Z,6.05
2023-11-07T00:55:37.586Z,5.72
2023-11-07T00:58:04.529Z,6.18
2023-11-07T01:00:31.413Z,6.88
2023-11-07T01:02:58.441Z,6.13
2023-11-07T01:05:25.564Z,7.78
2023-11-07T01:07:52.647Z,6.00
2023-11-07T01:10:19.739Z,5.60
2023-11-07T01:12:47.041Z,5.25
2023-11-07T01:15:14.264Z,9.18
2023-11-07T01:17:41.368Z,3.90
2023-11-07T01:20:08.974Z,6.78
2023-11-07T01:22:37.395Z,4.50
2023-11-07T01:25:04.665Z,9.00
2023-11-07T01:27:32.836Z,4.38
2023-11-07T01:29:59.935Z,6.18
2023-11-07T01:32:26.947Z,4.95
2023-11-07T01:34:53.925Z,5.05
2023-11-07T01:37:20.888Z,4.93
2023-11-07T01:39:47.911Z,5.68
2023-11-07T01:42:14.817Z,8.90
2023-11-07T01:44:50.590Z,10.95
2023-11-07T01:47:19.014Z,4.75
2023-11-07T01:49:47.715Z,4.78
2023-11-07T01:52:18.053Z,7.00
2023-11-07T01:54:46.445Z,5.53
2023-11-07T01:57:14.125Z,6.88
2023-11-07T01:59:41.686Z,5.07
2023-11-07T02:02:09.298Z,6.40
2023-11-07T02:04:36.585Z,5.65
2023-11-07T02:07:03.646Z,6.22
2023-11-07T02:09:31.790Z,4.65
2023-11-07T02:11:58.709Z,4.80
2023-11-07T02:14:32.945Z,4.22
2023-11-07T02:16:59.890Z,5.85
2023-11-07T02:19:26.833Z,6.20
2023-11-07T02:21:58.904Z,5.15
2023-11-07T02:24:26.103Z,3.65
2023-11-07T02:26:56.744Z,3.88
2023-11-07T02:29:23.946Z,5.65
2023-11-07T02:31:51.062Z,4.78
2023-11-07T02:34:18.931Z,6.63
2023-11-07T02:36:45.961Z,4.32
2023-11-07T02:39:12.926Z,4.60
2023-11-07T02:41:42.991Z,3.75
2023-11-07T02:44:09.970Z,4.93
2023-11-07T02:46:36.896Z,4.80
2023-11-07T02:49:03.979Z,4.38
2023-11-07T02:51:31.201Z,5.05
2023-11-07T02:53:58.259Z,6.00
2023-11-07T02:56:29.009Z,4.88
2023-11-07T02:58:56.612Z,3.15
2023-11-07T03:01:23.888Z,5.72
2023-11-07T03:03:51.290Z,3.35
2023-11-07T03:06:19.507Z,2.60
2023-11-07T03:08:46.598Z,3.30
2023-11-07T03:11:13.633Z,3.83
2023-11-07T03:13:40.582Z,4.78
2023-11-07T03:16:07.949Z,4.72
2023-11-07T03:18:35.150Z,5.20
2023-11-07T03:21:02.429Z,3.90
2023-11-07T03:23:29.320Z,2.83
2023-11-07T03:25:56.341Z,2.50
2023-11-07T03:28:23.281Z,2.20
2023-11-07T03:30:50.230Z,3.38
2023-11-07T03:33:17.534Z,2.95
2023-11-07T03:35:44.837Z,2.42
2023-11-07T03:38:11.768Z,2.53
2023-11-07T03:40:38.740Z,2.28
2023-11-07T03:43:06.540Z,2.40
2023-11-07T03:45:33.515Z,4.05
2023-11-07T03:48:00.677Z,3.55
2023-11-07T03:50:27.753Z,2.40
2023-11-07T03:52:54.698Z,2.47
2023-11-07T03:55:21.629Z,4.32
2023-11-07T03:57:48.652Z,4.85
2023-11-07T04:00:15.963Z,2.60
2023-11-07T04:02:43.030Z,5.57
2023-11-07T04:05:10.030Z,2.50
2023-11-07T04:07:36.955Z,4.13
2023-11-07T04:10:04.167Z,4.82
2023-11-07T04:12:31.122Z,2.78
2023-11-07T04:14:58.050Z,4.68
2023-11-07T04:17:25.145Z,5.13
2023-11-07T04:19:52.071Z,3.00
2023-11-07T04:22:18.968Z,3.17
2023-11-07T04:24:46.012Z,4.03
2023-11-07T04:27:13.027Z,3.22
2023-11-07T04:29:40.016Z,2.17
2023-11-07T04:32:07.317Z,2.10
2023-11-07T04:34:34.238Z,3.88
2023-11-07T04:37:01.423Z,3.65
2023-11-07T04:39:28.411Z,3.53
2023-11-07T04:41:55.384Z,3.22
2023-11-07T04:44:22.466Z,4.60
2023-11-07T04:46:49.448Z,3.05
2023-11-07T04:49:16.541Z,3.67
2023-11-07T04:51:43.627Z,5.43
2023-11-07T04:54:10.674Z,3.58
2023-11-07T04:56:37.689Z,3.97
2023-11-07T04:59:04.703Z,4.20
2023-11-07T05:01:31.594Z,2.95
2023-11-07T05:03:58.727Z,5.38
2023-11-07T05:06:25.841Z,5.43
2023-11-07T05:08:52.884Z,3.25
2023-11-07T05:11:19.919Z,3.25
2023-11-07T05:13:46.880Z,4.18
2023-11-07T05:16:14.088Z,4.85
2023-11-07T05:18:41.133Z,4.20
2023-11-07T05:21:08.379Z,2.38
2023-11-07T05:23:35.340Z,3.97
2023-11-07T05:26:02.344Z,3.40
2023-11-07T05:28:29.308Z,6.88
2023-11-07T05:30:56.231Z,5.28
2023-11-07T05:33:23.311Z,6.60
2023-11-07T05:35:50.371Z,2.00
2023-11-07T05:38:17.382Z,4.35
2023-11-07T05:40:44.439Z,3.70
2023-11-07T05:43:11.368Z,2.67
2023-11-07T05:45:38.347Z,3.83
2023-11-07T05:48:05.897Z,2.17
2023-11-07T05:50:32.943Z,3.97
2023-11-07T05:53:01.691Z,3.60
2023-11-07T05:55:29.645Z,4.60
2023-11-07T05:57:56.567Z,2.88
2023-11-07T06:00:23.728Z,5.22
2023-11-07T06:02:50.903Z,3.10
2023-11-07T06:05:18.140Z,5.32
2023-11-07T06:07:45.042Z,3.35
2023-11-07T06:10:11.977Z,2.22
2023-11-07T06:12:38.916Z,4.82
2023-11-07T06:15:06.554Z,4.45
2023-11-07T06:17:33.551Z,7.60
2023-11-07T06:20:00.574Z,7.60
2023-11-07T06:22:27.528Z,5.45
2023-11-07T06:24:54.496Z,3.55
2023-11-07T06:27:21.504Z,3.30
2023-11-07T06:29:48.492Z,3.15
2023-11-07T06:32:15.553Z,6.50
2023-11-07T06:34:42.662Z,10.25
2023-11-07T06:37:09.691Z,25.70
2023-11-07T06:39:36.924Z,13.43
2023-11-07T06:42:04.112Z,11.07
2023-11-07T06:44:31.119Z,287.70
2023-11-07T06:46:58.110Z,227.90
2023-11-07T06:49:25.296Z,14.35
2023-11-07T06:51:52.920Z,25.95
2023-11-07T06:54:19.913Z,10.32
2023-11-07T06:56:48.086Z,12.20
2023-11-07T06:59:15.349Z,5.32
2023-11-07T07:01:45.418Z,5.45
2023-11-07T07:04:12.746Z,4.95
2023-11-07T07:06:39.800Z,7.95
2023-11-07T07:09:06.939Z,7.75
2023-11-07T07:11:33.912Z,13.60
2023-11-07T07:14:01.022Z,11.18
2023-11-07T07:16:27.995Z,10.10
2023-11-07T07:18:55.033Z,33.90
2023-11-07T07:21:22.005Z,8.98
2023-11-07T07:23:49.154Z,24.83
2023-11-07T07:26:16.432Z,11.35
2023-11-07T07:28:43.506Z,16.15
2023-11-07T07:31:10.439Z,8.98
2023-11-07T07:33:39.004Z,12.45
2023-11-07T07:36:06.640Z,4.82
2023-11-07T07:38:33.795Z,6.22
2023-11-07T07:41:00.687Z,3.85
2023-11-07T07:43:27.580Z,10.50
2023-11-07T07:45:55.143Z,5.68
2023-11-07T07:48:22.698Z,6.45
2023-11-07T07:50:50.137Z,17.95
2023-11-07T07:53:17.246Z,22.13
2023-11-07T07:55:45.541Z,16.88
2023-11-07T07:58:13.167Z,7.40
2023-11-07T08:00:40.126Z,7.13
2023-11-07T08:03:07.219Z,3.83
2023-11-07T08:05:35.091Z,13.20
2023-11-07T08:08:02.039Z,6.75
2023-11-07T08:10:28.977Z,8.13
2023-11-07T08:12:55.862Z,4.90
2023-11-07T08:15:23.071Z,14.48
2023-11-07T08:17:53.143Z,8.30
2023-11-07T08:20:20.170Z,3.25
2023-11-07T08:22:48.459Z,3.97
2023-11-07T08:25:16.711Z,5.63
2023-11-07T08:27:44.362Z,12.38
2023-11-07T08:30:13.200Z,13.77
2023-11-07T08:32:44.057Z,14.18
2023-11-07T08:35:15.633Z,8.93
2023-11-07T08:37:43.255Z,9.50
2023-11-07T08:40:10.494Z,7.30
2023-11-07T08:42:37.584Z,2.10
2023-11-07T08:45:05.033Z,3.33
2023-11-07T08:47:32.181Z,7.82
2023-11-07T08:49:59.216Z,8.00
2023-11-07T08:52:26.216Z,4.82
2023-11-07T08:54:53.395Z,3.15
2023-11-07T08:57:20.475Z,6.13
2023-11-07T08:59:47.421Z,20.75
2023-11-07T09:02:14.705Z,7.97
2023-11-07T09:04:41.680Z,5.68
2023-11-07T09:07:08.657Z,9.00
2023-11-07T09:09:35.607Z,4.80
2023-11-07T09:12:02.695Z,5.40
2023-11-07T09:14:29.916Z,9.68
2023-11-07T09:16:58.784Z,1.50
2023-11-07T09:19:25.770Z,4.75
2023-11-07T09:21:52.742Z,2.25
2023-11-07T09:24:19.803Z,3.38
2023-11-07T09:26:46.730Z,5.57
2023-11-07T09:29:13.744Z,2.67
2023-11-07T09:31:40.921Z,2.13
2023-11-07T09:34:07.944Z,3.50
2023-11-07T09:36:35.069Z,1.73
2023-11-07T09:39:02.013Z,3.33
2023-11-07T09:41:29.081Z,2.97
2023-11-07T09:43:56.833Z,3.28
2023-11-07T09:46:25.895Z,1.98
2023-11-07T09:48:53.175Z,2.03
2023-11-07T09:51:22.717Z,1.92
2023-11-07T09:53:51.125Z,5.40
2023-11-07T09:56:18.842Z,2.08
2023-11-07T09:58:51.325Z,2.17
2023-11-07T10:01:19.916Z,3.05
2023-11-07T10:03:47.877Z,3.72
2023-11-07T10:06:14.986Z,3.22
2023-11-07T10:08:42.012Z,3.50
2023-11-07T10:11:14.022Z,4.45
2023-11-07T10:14:03.276Z,2.13
2023-11-07T10:16:41.250Z,3.70
2023-11-07T10:19:12.935Z,3.75
2023-11-07T10:21:40.016Z,1.73
2023-11-07T10:24:08.997Z,2.90
2023-11-07T10:26:36.263Z,2.08
2023-11-07T10:29:06.992Z,1.73
2023-11-07T10:31:33.930Z,3.75
2023-11-07T10:34:19.519Z,2.05
2023-11-07T10:36:46.419Z,2.08
2023-11-07T10:39:17.408Z,1.73
2023-11-07T10:41:45.351Z,1.50
2023-11-07T10:44:22.871Z,4.57
2023-11-07T10:46:50.455Z,4.68
2023-11-07T10:49:18.622Z,1.48
2023-11-07T10:51:47.868Z,2.00
2023-11-07T10:54:15.587Z,1.58
2023-11-07T10:56:43.917Z,1.63
2023-11-07T10:59:21.857Z,3.33
2023-11-07T11:01:51.056Z,2.20
2023-11-07T11:06:53.695Z,2.30
2023-11-07T11:09:24.474Z,3.17
2023-11-07T11:11:52.571Z,5.72
2023-11-07T11:14:20.435Z,1.25
2023-11-07T11:16:51.843Z,1.52
2023-11-07T11:19:37.707Z,4.18
2023-11-07T11:22:40.523Z,1.88
2023-11-07T11:25:32.481Z,3.15
2023-11-07T11:28:03.904Z,1.90
2023-11-07T11:30:35.394Z,3.60
2023-11-07T11:33:10.457Z,2.53
2023-11-07T11:35:38.904Z,3.50
2023-11-07T11:38:14.292Z,2.60
2023-11-07T11:41:00.951Z,2.72
2023-11-07T11:43:33.272Z,4.40
2023-11-07T11:46:20.281Z,5.70
2023-11-07T11:48:50.263Z,2.42
2023-11-07T11:51:32.533Z,4.43
2023-11-07T11:56:27.111Z,3.22
2023-11-07T11:59:10.005Z,3.90
2023-11-07T12:01:51.609Z,2.60
2023-11-07T12:04:27.572Z,3.20
2023-11-07T12:07:12.639Z,3.75
2023-11-07T12:09:40.448Z,3.38
2023-11-07T12:12:08.626Z,3.67
2023-11-07T12:14:49.991Z,4.30
2023-11-07T12:17:16.937Z,2.40
2023-11-07T12:19:44.075Z,3.03
2023-11-07T12:22:11.330Z,2.95
2023-11-07T12:24:39.022Z,3.70
2023-11-07T12:27:06.082Z,5.97
2023-11-07T12:29:35.317Z,5.45
2023-11-07T12:32:03.334Z,4.18
2023-11-07T12:34:39.087Z,5.10
2023-11-07T12:37:11.906Z,2.67
2023-11-07T12:39:39.349Z,3.08
2023-11-07T12:42:06.919Z,3.20
2023-11-07T12:44:33.984Z,4.53
2023-11-07T12:47:01.123Z,6.85
2023-11-07T12:49:28.189Z,4.28
2023-11-07T12:51:57.440Z,5.72
2023-11-07T12:54:27.825Z,4.07
2023-11-07T12:56:54.868Z,5.35
2023-11-07T12:59:22.040Z,3.20
2023-11-07T13:01:49.134Z,4.45
2023-11-07T13:04:17.743Z,2.58
2023-11-07T13:06:51.911Z,2.50
2023-11-07T13:09:19.061Z,2.17
2023-11-07T13:11:46.035Z,3.33
2023-11-07T13:14:13.349Z,3.22
2023-11-07T13:16:40.287Z,2.50
2023-11-07T13:19:07.309Z,5.70
2023-11-07T13:21:34.449Z,3.83
2023-11-07T13:24:01.501Z,3.42
2023-11-07T13:26:28.524Z,5.05
2023-11-07T13:28:55.497Z,4.30
2023-11-07T13:31:22.735Z,4.32
2023-11-07T13:33:49.884Z,3.65
2023-11-07T13:36:17.423Z,4.40
2023-11-07T13:38:44.693Z,4.00
2023-11-07T13:41:11.646Z,2.28
2023-11-07T13:43:38.603Z,5.32
2023-11-07T13:46:05.698Z,7.65
2023-11-07T13:48:32.711Z,5.18
2023-11-07T13:51:00.021Z,6.72
2023-11-07T13:53:27.095Z,5.72
2023-11-07T13:55:54.038Z,3.00
2023-11-07T13:58:21.170Z,6.90
2023-11-07T14:00:48.096Z,3.35
2023-11-07T14:03:15.139Z,4.72
2023-11-07T14:05:42.230Z,5.00
2023-11-07T14:08:09.264Z,5.20
2023-11-07T14:10:36.294Z,5.95
2023-11-07T14:13:03.247Z,24.40
2023-11-07T14:15:30.251Z,8.48
2023-11-07T14:17:57.249Z,11.20
2023-11-07T14:20:24.293Z,5.50
2023-11-07T14:22:52.031Z,10.70
2023-11-07T14:25:18.926Z,3.45
2023-11-07T14:27:45.955Z,4.22
2023-11-07T14:30:27.130Z,3.45
2023-11-07T14:33:00.221Z,5.35
2023-11-07T14:35:27.255Z,5.78
2023-11-07T14:37:54.197Z,6.53
2023-11-07T14:40:21.247Z,4.45
2023-11-07T14:42:48.291Z,7.53
2023-11-07T14:45:15.389Z,5.15
2023-11-07T14:47:46.451Z,5.07
2023-11-07T14:50:14.594Z,6.45
2023-11-07T14:52:42.127Z,5.68
2023-11-07T14:55:10.395Z,5.95
2023-11-07T14:57:38.472Z,4.47
2023-11-07T15:00:06.024Z,10.02
2023-11-07T15:02:33.028Z,5.65
2023-11-07T15:05:00.030Z,9.20
2023-11-07T15:07:26.990Z,13.40
2023-11-07T15:09:54.025Z,8.65
2023-11-07T15:12:20.982Z,7.85
2023-11-07T15:14:48.430Z,8.20
2023-11-07T15:17:15.526Z,8.70
2023-11-07T15:19:42.438Z,9.70
2023-11-07T15:22:09.438Z,9.70
2023-11-07T15:24:36.371Z,22.77
2023-11-07T15:27:03.344Z,23.42
2023-11-07T15:29:30.428Z,18.35
2023-11-07T15:31:57.344Z,33.22
2023-11-07T15:34:24.384Z,58.67
2023-11-07T15:36:51.456Z,75.63
2023-11-07T15:39:18.777Z,86.43
2023-11-07T15:41:45.742Z,43.28
2023-11-07T15:44:12.752Z,38.92
2023-11-07T15:46:40.633Z,24.65
2023-11-07T15:49:08.163Z,14.48
2023-11-07T15:51:35.259Z,17.35
2023-11-07T15:54:02.320Z,14.18
2023-11-07T15:56:29.324Z,23.70
2023-11-07T15:58:56.253Z,21.27
2023-11-07T16:01:26.849Z,45.70
2023-11-07T16:03:54.795Z,37.13
2023-11-07T16:06:22.386Z,28.30
2023-11-07T16:08:49.383Z,36.00
2023-11-07T16:11:16.545Z,33.58
2023-11-07T16:13:43.457Z,29.52
2023-11-07T16:16:11.590Z,28.10
2023-11-07T16:18:39.946Z,41.88
2023-11-07T16:21:07.012Z,38.28
2023-11-07T16:23:34.187Z,30.58
2023-11-07T16:26:01.433Z,17.33
2023-11-07T16:28:29.239Z,24.77
2023-11-07T16:30:56.203Z,17.88
2023-11-07T16:33:23.687Z,21.45
2023-11-07T16:35:50.618Z,26.05
2023-11-07T16:38:17.560Z,48.47
2023-11-07T16:40:44.602Z,38.55
2023-11-07T16:43:11.528Z,25.23
2023-11-07T16:45:38.571Z,17.17
2023-11-07T16:48:05.918Z,18.38
2023-11-07T16:50:33.015Z,64.32
2023-11-07T16:52:59.966Z,40.70
2023-11-07T16:55:26.871Z,30.13
2023-11-07T16:57:53.798Z,31.33
2023-11-07T17:00:20.855Z,16.35
2023-11-07T17:02:48.131Z,58.30
2023-11-07T17:05:15.407Z,25.35
2023-11-07T17:07:42.527Z,45.92
2023-11-07T17:10:09.995Z,71.78
2023-11-07T17:12:37.948Z,66.82
2023-11-07T17:15:08.438Z,59.88
2023-11-07T17:17:35.771Z,45.75
2023-11-07T17:20:02.743Z,53.42
2023-11-07T17:22:29.640Z,43.15
2023-11-07T17:24:56.685Z,28.42
2023-11-07T17:27:23.724Z,18.38
2023-11-07T17:29:50.735Z,54.75
2023-11-07T17:32:17.687Z,27.15
2023-11-07T17:34:44.627Z,47.45
2023-11-07T17:37:11.601Z,29.50
2023-11-07T17:39:38.578Z,22.35
2023-11-07T17:42:05.833Z,31.38
2023-11-07T17:44:32.859Z,25.83
2023-11-07T17:46:59.767Z,22.52
2023-11-07T17:49:26.729Z,18.05
2023-11-07T17:51:53.681Z,26.65
2023-11-07T17:54:20.768Z,23.00
2023-11-07T17:56:47.796Z,27.65
2023-11-07T17:59:14.744Z,23.65
2023-11-07T18:01:41.670Z,27.13
2023-11-07T18:04:08.740Z,68.75
2023-11-07T18:06:35.860Z,58.20
2023-11-07T18:09:02.991Z,99.50
2023-11-07T18:11:29.999Z,28.35
2023-11-07T18:13:56.947Z,40.25
2023-11-07T18:16:23.972Z,29.98
2023-11-07T18:18:58.189Z,19.48
2023-11-07T18:21:28.018Z,30.52
2023-11-07T18:23:56.020Z,21.23
2023-11-07T18:26:23.434Z,62.55
2023-11-07T18:28:51.392Z,52.13
2023-11-07T18:31:18.664Z,40.45
2023-11-07T18:33:45.904Z,42.30
2023-11-07T18:36:13.107Z,57.17
2023-11-07T18:38:40.554Z,43.70
2023-11-07T18:41:07.551Z,18.42
2023-11-07T18:43:34.677Z,10.55
2023-11-07T18:46:01.634Z,14.93
2023-11-07T18:48:28.722Z,10.30
2023-11-07T18:50:55.761Z,14.60
2023-11-07T18:53:27.936Z,17.20
2023-11-07T18:56:00.562Z,13.90
2023-11-07T18:58:27.494Z,39.08
2023-11-07T19:00:54.452Z,40.08
2023-11-07T19:03:21.445Z,25.67
2023-11-07T19:05:48.456Z,23.58
2023-11-07T19:08:15.365Z,23.70
2023-11-07T19:10:42.401Z,30.45
2023-11-07T19:13:09.389Z,57.70
2023-11-07T19:15:36.380Z,32.72
2023-11-07T19:18:03.540Z,36.85
2023-11-07T19:20:30.536Z,32.33
2023-11-07T19:22:57.524Z,41.22
2023-11-07T19:25:24.484Z,28.85
2023-11-07T19:27:51.512Z,25.92
2023-11-07T19:30:18.539Z,17.90
2023-11-07T19:32:45.464Z,22.50
2023-11-07T19:35:12.498Z,31.10
2023-11-07T19:37:39.590Z,15.13
2023-11-07T19:40:07.492Z,13.05
2023-11-07T19:42:35.331Z,7.07
2023-11-07T19:45:06.373Z,8.82
2023-11-07T19:47:33.576Z,7.10
2023-11-07T19:50:00.648Z,12.60
2023-11-07T19:52:27.592Z,16.60
2023-11-07T19:54:54.531Z,10.68
2023-11-07T19:57:21.552Z,24.13
2023-11-07T19:59:48.620Z,22.98
2023-11-07T20:02:15.563Z,31.25
2023-11-07T20:04:42.518Z,19.05
2023-11-07T20:07:09.491Z,11.23
2023-11-07T20:09:36.436Z,11.73
2023-11-07T20:12:03.461Z,11.35
2023-11-07T20:14:30.684Z,14.02
2023-11-07T20:16:57.630Z,13.57
2023-11-07T20:19:24.715Z,14.57
2023-11-07T20:21:51.887Z,7.78
2023-11-07T20:24:18.854Z,5.13
2023-11-07T20:26:45.846Z,22.02
2023-11-07T20:29:12.753Z,15.52
2023-11-07T20:31:39.709Z,7.75
2023-11-07T20:34:06.825Z,6.07
2023-11-07T20:36:33.927Z,6.97
2023-11-07T20:39:01.019Z,6.13
2023-11-07T20:41:27.964Z,5.32
2023-11-07T20:43:54.916Z,5.13
2023-11-07T20:46:30.881Z,8.48
2023-11-07T20:49:01.562Z,10.75
2023-11-07T20:51:28.706Z,6.45
2023-11-07T20:53:55.710Z,5.80
2023-11-07T20:56:22.672Z,5.05
2023-11-07T20:58:49.599Z,5.47
2023-11-07T21:01:16.632Z,6.57
2023-11-07T21:03:43.748Z,4.97
2023-11-07T21:06:10.794Z,7.47
2023-11-07T21:08:37.762Z,6.82
2023-11-07T21:11:05.066Z,7.10
2023-11-07T21:13:31.977Z,6.57
2023-11-07T21:15:58.926Z,5.47
2023-11-07T21:18:25.863Z,4.47
2023-11-07T21:20:52.813Z,5.97
2023-11-07T21:23:19.774Z,5.32
2023-11-07T21:25:46.763Z,6.28
2023-11-07T21:28:13.734Z,6.28
2023-11-07T21:30:40.688Z,4.70
2023-11-07T21:33:07.810Z,4.65
2023-11-07T21:35:34.792Z,5.15
2023-11-07T21:38:01.694Z,4.55
2023-11-07T21:40:28.624Z,5.03
2023-11-07T21:42:55.520Z,5.18
2023-11-07T21:45:22.507Z,4.22
2023-11-07T21:47:49.521Z,5.88
2023-11-07T21:50:16.544Z,6.97
2023-11-07T21:52:43.520Z,4.40
2023-11-07T21:55:10.467Z,5.80
2023-11-07T21:57:37.475Z,5.93
2023-11-07T22:00:05.537Z,3.97
2023-11-07T22:02:32.557Z,5.03
2023-11-07T22:04:59.624Z,5.78
2023-11-07T22:07:27.816Z,6.93
2023-11-07T22:09:54.866Z,3.95
2023-11-07T22:12:21.962Z,5.18
2023-11-07T22:14:48.873Z,6.07
2023-11-07T22:17:15.829Z,4.43
2023-11-07T22:19:42.712Z,4.47
2023-11-07T22:22:09.835Z,6.20
2023-11-07T22:24:36.798Z,6.32
2023-11-07T22:27:03.972Z,5.15
2023-11-07T22:29:30.967Z,7.50
2023-11-07T22:31:57.948Z,10.02
2023-11-07T22:34:25.024Z,5.28
2023-11-07T22:36:52.036Z,7.03
2023-11-07T22:39:18.986Z,4.72
2023-11-07T22:41:49.768Z,7.65
2023-11-07T22:44:16.782Z,6.80
2023-11-07T22:46:43.741Z,4.97
2023-11-07T22:49:10.779Z,7.40
2023-11-07T22:51:37.808Z,23.15
2023-11-07T22:54:04.882Z,11.82
2023-11-07T22:56:32.834Z,5.25
2023-11-07T22:58:59.756Z,5.20
2023-11-07T23:01:26.681Z,5.82
2023-11-07T23:03:53.672Z,6.50
2023-11-07T23:06:20.793Z,5.25
2023-11-07T23:08:47.830Z,7.13
2023-11-07T23:11:14.741Z,6.72
2023-11-07T23:13:41.724Z,7.78
2023-11-07T23:16:08.692Z,7.30
2023-11-07T23:18:35.743Z,5.65
2023-11-07T23:21:02.710Z,8.05
2023-11-07T23:23:29.686Z,6.25
2023-11-07T23:25:56.637Z,7.22
2023-11-07T23:28:23.745Z,6.88
2023-11-07T23:30:50.708Z,7.40
2023-11-07T23:33:17.971Z,7.93
2023-11-07T23:35:45.248Z,7.78
2023-11-07T23:38:13.150Z,10.43
2023-11-07T23:40:40.169Z,6.68
2023-11-07T23:43:07.249Z,5.88
2023-11-07T23:45:34.226Z,11.23
2023-11-07T23:48:01.252Z,7.45
2023-11-07T23:50:28.242Z,7.88
2023-11-07T23:52:55.167Z,6.03
2023-11-07T23:55:22.327Z,6.15
2023-11-07T23:57:49.340Z,8.05
